Terminal Aerodrome Forecast
Issued by NWS

Home | Current Version | Previous Version | Text Only | Print | Product List | Glossary On
Versions: 1 2 3 4 5 6 7 8 9 10 11 12 13 14 15 16 17 18 19 20 21 22
229
FTUS43 KGRB 060520
TAFATW
TAF
KATW 060520Z 0606/0706 15008KT 5SM BR OVC005
      TEMPO 0606/0608 P6SM NSW SCT005 BKN120
     FM061500 18009KT P6SM OVC010
     FM061900 22010G17KT P6SM BKN018
     FM062200 25014G24KT P6SM -SHSN SCT018 BKN030=

USA.gov is the U.S. government's official web portal to all federal, state and local government web resources and services.